Time;durP1;ratioP1;P1;durP2;ratioP2;P2;SDS_P1;SDS_P2;PMS_P1;PMS_P2;Temp;Humidity;BMP_temperature;BMP_pressure;BME280_temperature;BME280_humidity;BME280_pressure;Samples;Min_cycle;Max_cycle;Signal;HPM_P1;HPM_P2
2023/08/15 00:00:13;;;;;;;7.05;4.05;;;19.60;99.90;;;;;;4994643;28;20022;-87
2023/08/15 00:02:39;;;;;;;7.82;4.20;;;19.50;99.90;;;;;;4994791;28;20634;-87
2023/08/15 00:05:05;;;;;;;11.00;4.90;;;19.50;99.90;;;;;;5001286;28;20038;-87
2023/08/15 00:07:30;;;;;;;9.68;4.95;;;19.50;99.90;;;;;;4999579;28;20042;-87
2023/08/15 00:09:56;;;;;;;11.38;4.40;;;19.50;99.90;;;;;;5020572;28;20026;-88
2023/08/15 00:12:21;;;;;;;12.32;5.10;;;19.50;99.90;;;;;;4995562;28;20034;-88
2023/08/15 00:14:47;;;;;;;10.63;5.13;;;19.40;99.90;;;;;;5011843;28;20073;-88
2023/08/15 00:17:13;;;;;;;11.13;5.25;;;19.40;99.90;;;;;;4994525;28;20029;-87
2023/08/15 00:19:39;;;;;;;10.40;5.22;;;19.50;99.90;;;;;;4996145;28;20061;-87
2023/08/15 00:22:05;;;;;;;12.43;4.93;;;19.50;99.90;;;;;;4993790;28;20057;-87
2023/08/15 00:24:30;;;;;;;9.55;5.32;;;19.50;99.90;;;;;;4993109;28;20018;-87
2023/08/15 00:26:56;;;;;;;8.05;4.85;;;19.50;99.90;;;;;;4996204;28;20490;-87
2023/08/15 00:29:21;;;;;;;11.40;5.78;;;19.50;99.90;;;;;;4993231;28;20026;-87
2023/08/15 00:31:47;;;;;;;8.68;5.50;;;19.60;99.90;;;;;;4997874;28;20506;-87
2023/08/15 00:34:12;;;;;;;12.95;6.07;;;19.60;99.90;;;;;;4994714;28;20057;-87
2023/08/15 00:36:38;;;;;;;12.60;5.78;;;19.60;99.90;;;;;;4994509;28;20095;-87
2023/08/15 00:39:03;;;;;;;8.23;4.50;;;19.50;99.90;;;;;;4996919;28;20026;-87
2023/08/15 00:41:29;;;;;;;12.38;5.95;;;19.50;99.90;;;;;;4994467;28;20026;-88
2023/08/15 00:43:56;;;;;;;11.57;5.80;;;19.50;99.90;;;;;;5007635;28;20132;-88
2023/08/15 00:46:22;;;;;;;12.52;5.15;;;19.50;99.90;;;;;;4999805;28;20033;-87
2023/08/15 00:48:48;;;;;;;10.15;4.55;;;19.40;99.90;;;;;;4988429;28;20455;-87
2023/08/15 00:51:14;;;;;;;10.90;4.95;;;19.40;99.90;;;;;;4990271;28;20462;-87
2023/08/15 00:53:40;;;;;;;11.50;4.90;;;19.40;99.90;;;;;;4997223;28;20080;-87
2023/08/15 00:56:07;;;;;;;11.73;5.72;;;19.30;99.90;;;;;;4993244;28;20045;-87
2023/08/15 00:58:32;;;;;;;9.25;5.07;;;19.30;99.90;;;;;;4995606;28;20058;-87
2023/08/15 01:00:59;;;;;;;10.30;5.05;;;19.30;99.90;;;;;;4995626;28;20053;-87
2023/08/15 01:03:24;;;;;;;11.57;6.22;;;19.30;99.90;;;;;;4980657;28;20026;-87
2023/08/15 01:05:50;;;;;;;10.02;5.55;;;19.30;99.90;;;;;;4990231;28;20080;-87
2023/08/15 01:08:16;;;;;;;8.77;5.57;;;19.20;99.90;;;;;;4995577;28;20092;-87
2023/08/15 01:10:43;;;;;;;9.27;4.93;;;19.20;99.90;;;;;;4983923;28;20401;-87
2023/08/15 01:13:25;;;;;;;8.75;5.80;;;19.20;99.90;;;;;;4982265;28;20031;-87
2023/08/15 01:15:52;;;;;;;11.23;5.43;;;19.30;99.90;;;;;;4990983;28;20064;-87
2023/08/15 01:18:24;;;;;;;10.77;5.78;;;19.20;99.90;;;;;;5004229;28;20029;-87
2023/08/15 01:20:52;;;;;;;10.07;6.32;;;19.20;99.90;;;;;;5013134;28;20113;-87
2023/08/15 01:23:23;;;;;;;11.98;6.43;;;19.20;99.90;;;;;;5003584;28;20530;-87
2023/08/15 01:25:53;;;;;;;13.43;5.70;;;19.30;99.90;;;;;;5009678;28;20022;-87
2023/08/15 01:28:19;;;;;;;9.80;5.35;;;19.30;99.90;;;;;;4998975;28;20072;-87
2023/08/15 01:31:04;;;;;;;10.25;5.53;;;19.40;99.90;;;;;;4996738;28;20464;-87
2023/08/15 01:33:39;;;;;;;8.88;4.85;;;19.40;99.90;;;;;;5014964;28;20113;-87
2023/08/15 01:36:11;;;;;;;6.88;4.68;;;19.40;99.90;;;;;;5015968;28;20139;-87
2023/08/15 01:38:51;;;;;;;14.68;4.90;;;19.40;99.90;;;;;;5001575;28;20091;-87
2023/08/15 01:41:20;;;;;;;15.48;4.80;;;19.40;99.90;;;;;;5013829;28;20034;-87
2023/08/15 01:43:47;;;;;;;7.70;4.57;;;19.40;99.90;;;;;;4995242;28;20025;-87
2023/08/15 01:46:13;;;;;;;9.98;5.05;;;19.40;99.90;;;;;;4995173;28;20116;-87
2023/08/15 01:48:42;;;;;;;9.93;4.15;;;19.30;99.90;;;;;;4997267;28;20145;-88
2023/08/15 01:51:09;;;;;;;8.93;4.68;;;19.30;99.90;;;;;;5021082;28;20393;-88
2023/08/15 01:53:36;;;;;;;12.60;5.25;;;19.20;99.90;;;;;;4997074;28;20124;-88
2023/08/15 01:56:02;;;;;;;9.73;5.05;;;19.20;99.90;;;;;;4995856;28;20064;-88
2023/08/15 01:58:27;;;;;;;10.32;4.65;;;19.20;99.90;;;;;;4997781;28;20060;-88
2023/08/15 02:00:53;;;;;;;11.55;4.80;;;19.20;99.90;;;;;;4997267;28;20026;-88
2023/08/15 02:03:18;;;;;;;12.27;4.55;;;19.20;99.90;;;;;;4997841;28;20057;-88
2023/08/15 02:05:44;;;;;;;9.00;4.50;;;19.20;99.90;;;;;;4995129;28;20064;-87
2023/08/15 02:08:09;;;;;;;9.75;4.85;;;19.10;99.90;;;;;;4996656;28;20042;-88
2023/08/15 02:10:35;;;;;;;8.95;4.68;;;19.10;99.90;;;;;;5003501;28;20600;-88
2023/08/15 02:13:00;;;;;;;10.35;5.95;;;19.10;99.90;;;;;;5019814;28;20572;-87
2023/08/15 02:15:26;;;;;;;11.20;5.15;;;19.20;99.90;;;;;;5002440;28;20026;-88
2023/08/15 02:17:51;;;;;;;12.93;5.10;;;19.10;99.90;;;;;;5000784;28;20037;-88
2023/08/15 02:20:17;;;;;;;12.00;5.60;;;19.10;99.90;;;;;;5014885;28;20057;-88
2023/08/15 02:22:42;;;;;;;13.90;6.05;;;19.00;99.90;;;;;;5006176;28;20536;-88
2023/08/15 02:25:08;;;;;;;9.93;5.28;;;19.00;99.90;;;;;;5001264;28;20479;-88
2023/08/15 02:27:34;;;;;;;11.95;5.68;;;18.90;99.90;;;;;;4996591;28;20395;-88
2023/08/15 02:29:59;;;;;;;11.30;5.95;;;18.90;99.90;;;;;;4998510;28;20049;-88
2023/08/15 02:32:25;;;;;;;16.50;5.70;;;18.90;99.90;;;;;;4999725;28;20116;-88
2023/08/15 02:34:51;;;;;;;16.00;6.88;;;18.80;99.90;;;;;;5002293;28;20048;-87
2023/08/15 02:37:17;;;;;;;9.63;6.18;;;18.70;99.90;;;;;;5007351;28;20509;-88
2023/08/15 02:39:42;;;;;;;12.25;6.03;;;18.70;99.90;;;;;;4997473;28;20053;-88
2023/08/15 02:42:08;;;;;;;12.68;6.60;;;18.70;99.90;;;;;;5001477;28;20060;-87
2023/08/15 02:44:33;;;;;;;12.07;5.97;;;18.70;99.90;;;;;;5000568;28;20111;-88
2023/08/15 02:46:59;;;;;;;12.35;5.63;;;18.70;99.90;;;;;;5002324;28;20029;-88
2023/08/15 02:49:25;;;;;;;14.23;5.65;;;18.60;99.90;;;;;;4997752;28;20033;-87
2023/08/15 02:51:50;;;;;;;13.85;6.28;;;18.60;99.90;;;;;;4995468;28;20026;-87
2023/08/15 02:54:16;;;;;;;12.85;5.43;;;18.60;99.90;;;;;;4996693;28;20038;-87
2023/08/15 02:56:41;;;;;;;9.88;4.82;;;18.60;99.90;;;;;;4995587;28;20037;-88
2023/08/15 02:59:07;;;;;;;14.15;4.47;;;18.50;99.90;;;;;;4988395;28;20030;-88
2023/08/15 03:01:32;;;;;;;13.52;4.60;;;18.50;99.90;;;;;;4997657;28;20823;-87
2023/08/15 03:03:58;;;;;;;12.05;4.15;;;18.50;99.90;;;;;;5002663;28;20033;-88
2023/08/15 03:06:24;;;;;;;9.95;3.38;;;18.40;99.90;;;;;;4996839;28;20083;-87
2023/08/15 03:08:49;;;;;;;10.13;4.00;;;18.40;99.90;;;;;;4999502;28;20045;-87
2023/08/15 03:11:15;;;;;;;13.60;3.65;;;18.40;99.90;;;;;;4988661;28;20490;-88
2023/08/15 03:13:40;;;;;;;10.73;3.90;;;18.30;99.90;;;;;;5008925;28;20053;-87
2023/08/15 03:16:06;;;;;;;7.72;2.90;;;18.30;99.90;;;;;;4991875;28;20024;-88
2023/08/15 03:18:31;;;;;;;14.73;3.47;;;18.30;99.90;;;;;;4994555;28;20390;-88
2023/08/15 03:20:58;;;;;;;8.57;1.90;;;18.30;99.90;;;;;;4999373;28;20030;-87
2023/08/15 03:23:24;;;;;;;8.68;2.72;;;18.30;99.90;;;;;;5016036;28;20494;-88
2023/08/15 03:26:08;;;;;;;8.50;2.45;;;18.30;99.90;;;;;;4997387;28;20030;-87
2023/08/15 03:28:34;;;;;;;8.52;2.20;;;18.30;99.90;;;;;;4994448;28;20034;-88
2023/08/15 03:31:04;;;;;;;9.57;2.67;;;18.20;99.90;;;;;;4995984;28;20026;-87
2023/08/15 03:33:30;;;;;;;7.68;2.30;;;18.20;99.90;;;;;;5002102;28;20060;-88
2023/08/15 03:35:55;;;;;;;7.80;2.85;;;18.20;99.90;;;;;;4994177;28;20030;-86
2023/08/15 03:38:21;;;;;;;11.10;3.10;;;18.10;99.90;;;;;;5001442;28;20026;-87
2023/08/15 03:40:52;;;;;;;11.00;2.55;;;18.10;99.90;;;;;;5015141;28;20026;-87
2023/08/15 03:43:17;;;;;;;8.55;2.67;;;18.00;99.90;;;;;;5000824;28;20458;-87
2023/08/15 03:45:43;;;;;;;12.57;3.47;;;18.00;99.90;;;;;;5010124;28;20025;-88
2023/08/15 03:48:09;;;;;;;10.48;2.95;;;17.90;99.90;;;;;;4982659;28;20049;-87
2023/08/15 03:50:37;;;;;;;7.32;2.83;;;17.80;99.90;;;;;;4989666;28;20061;-88
2023/08/15 03:53:03;;;;;;;9.80;2.63;;;17.80;99.90;;;;;;5007594;28;20034;-87
2023/08/15 03:55:30;;;;;;;8.10;2.45;;;17.70;99.90;;;;;;4999485;28;20042;-87
2023/08/15 03:57:55;;;;;;;11.35;2.90;;;17.70;99.90;;;;;;4992377;28;20023;-88
2023/08/15 04:00:22;;;;;;;6.18;2.40;;;17.60;99.90;;;;;;4991307;28;20037;-87
2023/08/15 04:02:48;;;;;;;7.60;2.58;;;17.60;99.90;;;;;;5002669;28;20061;-87
2023/08/15 04:05:13;;;;;;;9.20;2.85;;;17.60;99.90;;;;;;4996712;28;20057;-87
2023/08/15 04:07:39;;;;;;;7.68;2.53;;;17.60;99.90;;;;;;5001704;28;20549;-88
2023/08/15 04:10:05;;;;;;;13.05;3.08;;;17.50;99.90;;;;;;4979523;28;20057;-88
2023/08/15 04:12:33;;;;;;;8.35;2.47;;;17.40;99.90;;;;;;5006879;28;20027;-87
2023/08/15 04:14:59;;;;;;;9.02;2.47;;;17.40;99.90;;;;;;4992171;28;20106;-88
2023/08/15 04:17:25;;;;;;;6.47;2.60;;;17.40;99.90;;;;;;4998086;28;20026;-87
2023/08/15 04:19:50;;;;;;;8.77;2.88;;;17.30;99.90;;;;;;4983481;28;20030;-87
2023/08/15 04:22:16;;;;;;;12.57;2.60;;;17.30;99.90;;;;;;4989628;28;20081;-87
2023/08/15 04:24:42;;;;;;;12.98;2.97;;;17.30;99.90;;;;;;5008595;28;20092;-87
2023/08/15 04:27:07;;;;;;;9.82;3.38;;;17.20;99.90;;;;;;4992060;28;20437;-87
2023/08/15 04:29:33;;;;;;;7.88;2.55;;;17.20;99.90;;;;;;4992051;28;20034;-87
2023/08/15 04:31:58;;;;;;;12.38;2.80;;;17.10;99.90;;;;;;4998346;28;20056;-87
2023/08/15 04:34:24;;;;;;;11.43;2.67;;;17.20;99.90;;;;;;5000233;28;20022;-88
2023/08/15 04:36:50;;;;;;;9.57;2.55;;;17.10;99.90;;;;;;4991081;28;20033;-87
2023/08/15 04:39:18;;;;;;;8.93;2.90;;;17.10;99.90;;;;;;5004793;28;20451;-88
2023/08/15 04:41:44;;;;;;;7.85;2.95;;;17.00;99.90;;;;;;4989434;28;20406;-87
2023/08/15 04:44:10;;;;;;;9.80;2.35;;;17.00;99.90;;;;;;5004561;28;20026;-87
2023/08/15 04:46:36;;;;;;;7.82;2.20;;;17.00;99.90;;;;;;4986825;28;20290;-87
2023/08/15 04:49:01;;;;;;;7.70;2.50;;;17.00;99.90;;;;;;4991633;28;20053;-87
2023/08/15 04:51:27;;;;;;;11.85;2.95;;;17.00;99.90;;;;;;4988603;28;20052;-87
2023/08/15 04:53:52;;;;;;;10.20;2.42;;;16.90;99.90;;;;;;4988251;28;20038;-87
2023/08/15 04:56:18;;;;;;;10.23;3.20;;;16.90;99.90;;;;;;4996212;28;20062;-87
2023/08/15 04:58:43;;;;;;;8.45;2.33;;;16.90;99.90;;;;;;4993848;28;20033;-87
2023/08/15 05:01:09;;;;;;;11.88;3.25;;;16.90;99.90;;;;;;4993327;28;20033;-86
2023/08/15 05:03:35;;;;;;;9.48;3.13;;;16.90;99.90;;;;;;4994486;28;20088;-87
2023/08/15 05:06:02;;;;;;;9.63;3.05;;;16.80;99.90;;;;;;4994286;28;20092;-87
2023/08/15 05:08:28;;;;;;;11.82;2.97;;;16.80;99.90;;;;;;4990957;28;20585;-87
2023/08/15 05:10:54;;;;;;;10.20;2.95;;;16.80;99.90;;;;;;4995026;28;20117;-87
2023/08/15 05:13:20;;;;;;;10.68;3.63;;;16.80;99.90;;;;;;4993043;28;20052;-87
2023/08/15 05:15:45;;;;;;;13.48;4.60;;;16.80;99.90;;;;;;4996413;28;20021;-87
2023/08/15 05:18:13;;;;;;;8.23;3.42;;;16.90;99.90;;;;;;5015453;28;20401;-87
2023/08/15 05:20:38;;;;;;;8.32;3.33;;;16.90;99.90;;;;;;4994663;28;20040;-86
2023/08/15 05:23:04;;;;;;;13.60;3.63;;;16.90;99.90;;;;;;4995572;28;20026;-86
2023/08/15 05:25:29;;;;;;;10.68;3.80;;;16.90;99.90;;;;;;4997923;28;20022;-87
2023/08/15 05:27:56;;;;;;;13.52;3.90;;;16.90;99.90;;;;;;5001319;28;20034;-87
2023/08/15 05:30:21;;;;;;;15.88;3.72;;;16.90;99.90;;;;;;5009749;28;20041;-87
2023/08/15 05:32:47;;;;;;;9.45;3.47;;;17.00;99.90;;;;;;5014465;28;20037;-87
2023/08/15 05:35:13;;;;;;;9.10;3.70;;;17.10;99.90;;;;;;4997603;28;20026;-87
2023/08/15 05:37:38;;;;;;;12.13;3.88;;;17.10;99.90;;;;;;4994109;28;20038;-87
2023/08/15 05:40:04;;;;;;;16.27;4.90;;;17.10;99.90;;;;;;4991483;28;20081;-87
2023/08/15 05:42:30;;;;;;;14.80;4.45;;;17.20;99.90;;;;;;4996180;28;20037;-87
2023/08/15 05:44:56;;;;;;;11.73;4.75;;;17.20;99.90;;;;;;4995853;28;20383;-87
2023/08/15 05:47:21;;;;;;;11.00;4.97;;;17.30;99.90;;;;;;4997192;28;20475;-87
2023/08/15 05:49:47;;;;;;;14.50;4.32;;;17.40;99.90;;;;;;4997406;28;20505;-88
2023/08/15 05:52:12;;;;;;;9.27;4.72;;;17.50;99.90;;;;;;4996109;28;20030;-87
2023/08/15 05:54:38;;;;;;;13.07;4.55;;;17.50;99.90;;;;;;4997562;28;20053;-87
2023/08/15 05:57:04;;;;;;;15.27;4.70;;;17.60;99.90;;;;;;4998020;28;20104;-87
2023/08/15 05:59:30;;;;;;;16.00;4.97;;;17.70;99.90;;;;;;4998156;28;20462;-87
2023/08/15 06:01:55;;;;;;;13.48;4.72;;;17.80;99.90;;;;;;4997432;28;20030;-87
2023/08/15 06:04:21;;;;;;;12.50;5.10;;;17.90;99.90;;;;;;5014511;28;20033;-87
2023/08/15 06:06:46;;;;;;;14.32;5.25;;;18.00;99.90;;;;;;4996073;28;20486;-87
2023/08/15 06:09:12;;;;;;;13.45;5.32;;;18.00;99.90;;;;;;4997775;28;20048;-88
2023/08/15 06:11:37;;;;;;;13.30;5.55;;;18.10;99.90;;;;;;4996622;28;20050;-87
2023/08/15 06:14:03;;;;;;;18.00;6.47;;;18.20;99.90;;;;;;5004705;28;20030;-87
2023/08/15 06:16:29;;;;;;;13.50;5.07;;;18.30;99.90;;;;;;4999994;28;20359;-88
2023/08/15 06:18:55;;;;;;;15.02;6.40;;;18.40;99.90;;;;;;4996300;28;20030;-87
2023/08/15 06:21:21;;;;;;;12.75;5.88;;;18.30;99.90;;;;;;4996604;28;20030;-87
2023/08/15 06:23:46;;;;;;;14.88;6.13;;;18.30;99.90;;;;;;4996660;28;20036;-87
2023/08/15 06:26:12;;;;;;;12.15;5.20;;;18.40;99.90;;;;;;4993461;28;20525;-87
2023/08/15 06:28:37;;;;;;;11.90;5.50;;;18.50;99.90;;;;;;4996821;28;20091;-87
2023/08/15 06:31:03;;;;;;;12.60;6.07;;;18.50;99.90;;;;;;5011149;28;20053;-87
2023/08/15 06:33:28;;;;;;;16.45;5.40;;;18.60;99.90;;;;;;4992998;28;20068;-87
2023/08/15 06:35:54;;;;;;;13.63;5.65;;;18.70;99.90;;;;;;5009907;28;20033;-87
2023/08/15 06:38:19;;;;;;;17.58;7.00;;;18.80;99.90;;;;;;4996436;28;20025;-88
2023/08/15 06:40:45;;;;;;;13.00;6.25;;;18.90;99.90;;;;;;4993950;28;20504;-87
2023/08/15 06:43:10;;;;;;;10.60;5.88;;;19.10;99.90;;;;;;5011332;28;20402;-86
2023/08/15 06:45:37;;;;;;;13.65;6.35;;;19.10;99.90;;;;;;4997499;28;20116;-85
2023/08/15 06:48:05;;;;;;;12.80;5.88;;;19.20;99.90;;;;;;4997886;28;20077;-85
2023/08/15 06:50:31;;;;;;;12.30;5.63;;;19.30;99.90;;;;;;5011059;28;20045;-86
2023/08/15 06:52:56;;;;;;;12.45;5.20;;;19.40;99.90;;;;;;5005902;28;20026;-87
2023/08/15 06:55:22;;;;;;;12.77;5.43;;;19.40;99.90;;;;;;4991653;28;20034;-87
2023/08/15 06:57:47;;;;;;;20.80;6.20;;;19.60;99.90;;;;;;5001090;28;20466;-86
2023/08/15 07:00:13;;;;;;;14.57;4.82;;;19.70;99.90;;;;;;4996574;28;20054;-88
2023/08/15 07:02:41;;;;;;;11.68;4.75;;;19.80;99.90;;;;;;4992001;28;20034;-87
2023/08/15 07:05:07;;;;;;;14.02;5.47;;;19.90;99.90;;;;;;4996458;28;20487;-86
2023/08/15 07:07:33;;;;;;;12.13;4.20;;;20.00;99.90;;;;;;4997586;28;20034;-86
2023/08/15 07:09:58;;;;;;;10.30;4.13;;;20.10;99.90;;;;;;5012603;28;20048;-86
2023/08/15 07:12:24;;;;;;;11.25;4.15;;;20.20;99.90;;;;;;4997053;28;20029;-86
2023/08/15 07:14:50;;;;;;;11.07;3.78;;;20.20;99.90;;;;;;4995300;28;20393;-87
2023/08/15 07:17:15;;;;;;;12.82;3.42;;;20.40;99.90;;;;;;5008823;28;20022;-87
2023/08/15 07:19:41;;;;;;;8.32;3.03;;;20.50;99.90;;;;;;4984870;28;20058;-86
2023/08/15 07:22:07;;;;;;;10.73;3.22;;;20.60;99.90;;;;;;4995918;28;20033;-87
2023/08/15 07:24:32;;;;;;;7.65;3.35;;;20.70;99.90;;;;;;5013336;28;20089;-88
2023/08/15 07:26:58;;;;;;;12.43;3.58;;;20.80;99.90;;;;;;4994056;28;20026;-85
2023/08/15 07:29:23;;;;;;;14.85;3.45;;;20.80;99.90;;;;;;5014126;28;20083;-87
2023/08/15 07:31:49;;;;;;;11.00;2.97;;;20.80;99.90;;;;;;5012080;28;20074;-86
2023/08/15 07:34:15;;;;;;;10.95;2.95;;;20.80;99.90;;;;;;5012529;28;20580;-87
2023/08/15 07:36:40;;;;;;;11.07;2.90;;;20.80;99.90;;;;;;5011695;28;20056;-88
2023/08/15 07:39:06;;;;;;;6.47;2.83;;;20.90;99.90;;;;;;4992675;28;20040;-87
2023/08/15 07:41:32;;;;;;;10.40;2.53;;;20.90;99.90;;;;;;4993635;28;20033;-87
2023/08/15 07:43:57;;;;;;;10.63;2.22;;;21.00;99.90;;;;;;4994515;28;20060;-86
2023/08/15 07:46:23;;;;;;;6.75;1.73;;;21.10;99.90;;;;;;4995460;28;20038;-86
2023/08/15 07:48:50;;;;;;;11.65;2.30;;;21.10;99.90;;;;;;4995705;28;20037;-86
2023/08/15 07:51:16;;;;;;;6.13;1.75;;;21.20;99.90;;;;;;4987776;28;20033;-86
2023/08/15 07:53:41;;;;;;;8.68;1.90;;;21.30;99.90;;;;;;4995366;28;20030;-86
2023/08/15 07:56:07;;;;;;;10.02;2.10;;;21.40;99.90;;;;;;4995288;28;20038;-86
2023/08/15 07:58:33;;;;;;;9.95;1.90;;;21.50;99.90;;;;;;5010803;28;20036;-87
2023/08/15 08:00:59;;;;;;;7.22;1.85;;;21.60;99.90;;;;;;4992053;28;20034;-87
2023/08/15 08:03:24;;;;;;;9.20;2.33;;;21.60;99.90;;;;;;4992436;28;20037;-86
2023/08/15 08:05:50;;;;;;;6.88;1.80;;;21.70;99.90;;;;;;4998822;28;20050;-86
2023/08/15 08:08:18;;;;;;;8.50;2.58;;;21.60;99.90;;;;;;4991598;28;20030;-85
2023/08/15 08:10:44;;;;;;;8.52;2.28;;;21.70;99.90;;;;;;4994688;28;20026;-86
2023/08/15 08:13:12;;;;;;;9.63;1.70;;;21.90;99.90;;;;;;4995218;28;20014;-87
2023/08/15 08:15:38;;;;;;;10.00;2.42;;;22.00;99.90;;;;;;4991338;28;20019;-87
2023/08/15 08:18:05;;;;;;;10.27;2.55;;;22.00;99.90;;;;;;4997200;28;20026;-88
2023/08/15 08:20:31;;;;;;;8.93;2.47;;;22.20;99.90;;;;;;5013879;28;20026;-87
2023/08/15 08:22:57;;;;;;;7.03;2.10;;;22.50;99.90;;;;;;4993833;28;20026;-88
2023/08/15 08:25:23;;;;;;;8.75;2.03;;;22.70;99.90;;;;;;4992330;28;20038;-87
2023/08/15 08:27:50;;;;;;;7.20;1.88;;;22.80;99.90;;;;;;4979872;28;20042;-87
2023/08/15 08:30:17;;;;;;;8.95;2.78;;;23.00;99.90;;;;;;5007796;28;20050;-88
2023/08/15 08:32:43;;;;;;;6.57;1.67;;;23.10;99.90;;;;;;5011096;28;20038;-88
2023/08/15 08:35:10;;;;;;;18.77;16.35;;;23.30;99.90;;;;;;4993401;28;20437;-88
2023/08/15 08:37:36;;;;;;;5.32;1.48;;;23.30;99.90;;;;;;4992104;28;20397;-88
2023/08/15 08:40:04;;;;;;;5.68;1.00;;;23.30;99.90;;;;;;4973308;28;20490;-87
2023/08/15 08:42:30;;;;;;;6.25;0.82;;;23.30;99.90;;;;;;4994122;28;20037;-86
2023/08/15 08:44:56;;;;;;;5.20;1.65;;;23.20;99.90;;;;;;4995606;28;20494;-86
2023/08/15 08:47:25;;;;;;;9.20;1.65;;;23.10;99.90;;;;;;4989053;28;20080;-87
2023/08/15 08:49:52;;;;;;;7.93;0.90;;;23.00;99.90;;;;;;4993958;28;20474;-87
2023/08/15 08:52:18;;;;;;;9.05;1.02;;;22.70;99.90;;;;;;4992291;28;20034;-87
2023/08/15 08:54:44;;;;;;;10.20;1.23;;;22.50;99.90;;;;;;5009867;28;20034;-86
2023/08/15 08:57:10;;;;;;;7.53;1.33;;;22.40;99.90;;;;;;4991755;28;20026;-88
2023/08/15 08:59:38;;;;;;;6.63;1.30;;;22.30;99.90;;;;;;5004195;28;20033;-86
2023/08/15 09:02:09;;;;;;;8.05;1.63;;;22.20;99.90;;;;;;4995703;28;20478;-85
2023/08/15 09:04:35;;;;;;;5.43;1.80;;;22.20;99.90;;;;;;4995257;28;20053;-86
2023/08/15 09:07:01;;;;;;;7.25;2.00;;;22.30;99.90;;;;;;4991460;28;20026;-85
2023/08/15 09:09:26;;;;;;;9.25;1.80;;;22.40;99.90;;;;;;4994223;28;20038;-87
2023/08/15 09:11:52;;;;;;;9.02;2.30;;;22.50;99.90;;;;;;4990604;28;20022;-87
2023/08/15 09:14:18;;;;;;;8.38;2.58;;;22.70;99.90;;;;;;4993715;28;20026;-87
2023/08/15 09:16:48;;;;;;;9.40;2.40;;;22.80;99.90;;;;;;4988885;28;20474;-87
2023/08/15 09:19:15;;;;;;;7.55;2.20;;;23.00;99.90;;;;;;5011881;28;20076;-88
2023/08/15 09:21:42;;;;;;;6.07;1.60;;;23.00;99.90;;;;;;4992997;28;20046;-87
2023/08/15 09:24:08;;;;;;;11.05;2.63;;;23.10;99.90;;;;;;4992485;28;20068;-85
2023/08/15 09:26:35;;;;;;;14.63;2.25;;;23.30;99.90;;;;;;5003442;28;20053;-86
2023/08/15 09:29:02;;;;;;;8.40;1.90;;;23.50;99.90;;;;;;4994567;28;20056;-87
2023/08/15 09:31:28;;;;;;;11.20;1.83;;;23.50;99.90;;;;;;4995232;28;20030;-87
2023/08/15 09:33:54;;;;;;;8.85;1.88;;;23.60;99.90;;;;;;4985494;28;20045;-86
2023/08/15 09:36:22;;;;;;;6.75;2.00;;;23.70;99.90;;;;;;4993061;28;20022;-87
2023/08/15 09:38:51;;;;;;;8.82;1.90;;;23.70;99.90;;;;;;4984508;28;20038;-87
2023/08/15 09:41:17;;;;;;;12.68;2.38;;;23.70;99.90;;;;;;4982419;28;20117;-87
2023/08/15 09:43:50;;;;;;;12.48;2.35;;;23.80;99.90;;;;;;4991765;28;20401;-87
2023/08/15 09:46:18;;;;;;;8.68;2.30;;;23.90;99.90;;;;;;4994452;28;20045;-87
2023/08/15 09:48:48;;;;;;;9.40;2.72;;;23.90;99.90;;;;;;4987225;28;20042;-88
2023/08/15 09:51:16;;;;;;;10.68;2.13;;;24.00;99.90;;;;;;4991103;28;20033;-87
2023/08/15 09:53:44;;;;;;;9.32;2.45;;;24.10;99.90;;;;;;4996584;28;20037;-85
2023/08/15 09:56:10;;;;;;;10.02;2.47;;;24.20;99.90;;;;;;5012344;28;20030;-87
2023/08/15 09:58:38;;;;;;;10.27;2.92;;;24.20;99.90;;;;;;4999378;28;20030;-87
2023/08/15 10:01:06;;;;;;;10.63;2.53;;;24.10;99.90;;;;;;4988714;28;20145;-87
2023/08/15 10:03:37;;;;;;;8.75;2.70;;;24.20;99.90;;;;;;4997304;28;20032;-87
2023/08/15 10:06:04;;;;;;;7.35;2.60;;;24.30;99.90;;;;;;4998566;28;20124;-88
2023/08/15 10:08:30;;;;;;;7.93;2.45;;;24.40;99.90;;;;;;4999427;28;20034;-88
2023/08/15 10:10:58;;;;;;;7.78;2.78;;;24.50;99.90;;;;;;5014177;28;20069;-87
2023/08/15 10:13:36;;;;;;;7.72;2.47;;;24.70;99.90;;;;;;4992598;28;20490;-88
2023/08/15 10:16:03;;;;;;;8.88;3.10;;;24.80;99.90;;;;;;5013845;28;20038;-88
2023/08/15 10:18:29;;;;;;;9.30;3.30;;;24.80;99.90;;;;;;4996646;28;20026;-88
2023/08/15 10:20:57;;;;;;;7.32;2.42;;;24.90;99.90;;;;;;4987882;28;20582;-89
2023/08/15 10:23:32;;;;;;;6.45;2.47;;;25.10;99.90;;;;;;4998059;28;20057;-88
2023/08/15 10:25:59;;;;;;;9.43;2.45;;;25.20;99.90;;;;;;4991782;28;20030;-93
2023/08/15 10:28:29;;;;;;;7.85;2.47;;;25.30;99.90;;;;;;4993479;28;20030;-88
2023/08/15 10:30:55;;;;;;;8.75;2.75;;;25.30;99.90;;;;;;5005327;28;20034;-89
2023/08/15 10:33:22;;;;;;;11.93;2.42;;;25.20;99.90;;;;;;4985657;28;20023;-88
2023/08/15 10:35:57;;;;;;;9.77;3.03;;;25.20;99.90;;;;;;4994477;28;20037;-88
2023/08/15 10:38:38;;;;;;;8.57;2.35;;;25.10;99.90;;;;;;4998058;28;20048;-88
2023/08/15 10:41:05;;;;;;;10.23;3.03;;;25.00;99.90;;;;;;4988223;28;20033;-87
2023/08/15 10:43:35;;;;;;;7.28;2.70;;;25.10;99.90;;;;;;5006618;28;20121;-88
2023/08/15 10:46:04;;;;;;;11.20;2.92;;;25.20;99.90;;;;;;4997146;28;20017;-88
2023/08/15 10:48:36;;;;;;;10.45;2.25;;;25.10;99.90;;;;;;4998161;28;20050;-87
2023/08/15 10:51:01;;;;;;;9.20;3.10;;;25.10;99.90;;;;;;4998833;28;20398;-87
2023/08/15 10:53:27;;;;;;;8.40;2.35;;;25.30;99.90;;;;;;4987717;28;20102;-88
2023/08/15 10:55:54;;;;;;;8.88;2.92;;;25.40;99.90;;;;;;4992894;28;20054;-88
2023/08/15 10:58:21;;;;;;;10.15;2.72;;;25.40;99.90;;;;;;4989286;28;20038;-88
2023/08/15 11:00:49;;;;;;;7.35;2.00;;;25.40;99.90;;;;;;4988352;28;20037;-87
2023/08/15 11:03:15;;;;;;;9.68;1.88;;;25.40;99.90;;;;;;4993106;28;20030;-89
2023/08/15 11:05:41;;;;;;;6.63;1.88;;;25.60;99.90;;;;;;4994489;28;20029;-86
2023/08/15 11:08:18;;;;;;;6.93;1.92;;;25.80;99.90;;;;;;4993125;28;20048;-88
2023/08/15 11:10:49;;;;;;;6.53;2.00;;;26.00;99.90;;;;;;4977791;28;20018;-87
2023/08/15 11:13:15;;;;;;;7.47;2.03;;;26.20;99.90;;;;;;4993855;28;20538;-88
2023/08/15 11:15:42;;;;;;;8.75;2.28;;;26.30;99.90;;;;;;4994317;28;20050;-88
2023/08/15 11:18:21;;;;;;;11.27;2.15;;;26.50;99.90;;;;;;4994672;28;20041;-90
2023/08/15 11:20:47;;;;;;;9.95;2.47;;;26.70;99.90;;;;;;4993307;28;20471;-89
2023/08/15 11:23:14;;;;;;;7.30;2.17;;;26.50;99.90;;;;;;4975368;28;20037;-89
2023/08/15 11:25:40;;;;;;;7.55;1.92;;;26.30;99.90;;;;;;4989900;28;20030;-88
2023/08/15 11:28:05;;;;;;;8.35;1.27;;;26.10;99.90;;;;;;4992606;28;20044;-87
2023/08/15 11:30:31;;;;;;;7.88;1.60;;;26.00;99.90;;;;;;4990253;28;20114;-88
2023/08/15 11:32:57;;;;;;;6.82;1.90;;;25.70;99.90;;;;;;4982403;28;20510;-88
2023/08/15 11:35:22;;;;;;;7.30;1.70;;;25.50;99.90;;;;;;4992727;28;20030;-89
2023/08/15 11:37:48;;;;;;;7.50;1.95;;;25.40;99.90;;;;;;4993129;28;20545;-89
2023/08/15 11:40:13;;;;;;;7.32;1.80;;;25.40;99.90;;;;;;4993279;28;20072;-89
2023/08/15 11:42:39;;;;;;;16.73;3.40;;;25.40;99.90;;;;;;4994105;28;20550;-88
2023/08/15 11:45:22;;;;;;;12.75;4.20;;;25.40;99.90;;;;;;4993072;28;20026;-89
2023/08/15 11:48:04;;;;;;;9.55;4.28;;;25.50;99.90;;;;;;4981705;28;20069;-89
2023/08/15 11:50:34;;;;;;;7.95;3.75;;;25.40;99.90;;;;;;4989713;28;20027;-89
2023/08/15 11:53:07;;;;;;;10.13;4.40;;;25.40;99.90;;;;;;4974341;28;20031;-88
2023/08/15 11:55:35;;;;;;;12.27;4.35;;;25.30;99.90;;;;;;4974303;28;20059;-89
2023/08/15 11:58:01;;;;;;;10.02;4.15;;;25.20;99.90;;;;;;4992991;28;20022;-88
2023/08/15 12:00:29;;;;;;;8.57;3.40;;;25.30;99.90;;;;;;4993573;28;20033;-88
2023/08/15 12:02:56;;;;;;;7.05;3.10;;;25.50;99.90;;;;;;4992344;28;20172;-88
2023/08/15 12:05:22;;;;;;;6.93;2.42;;;25.60;99.90;;;;;;4993480;28;20045;-87
2023/08/15 12:07:49;;;;;;;10.10;3.35;;;25.90;99.90;;;;;;4993880;28;20226;-89
2023/08/15 12:10:16;;;;;;;11.27;3.20;;;26.00;99.90;;;;;;4990108;28;20404;-88
2023/08/15 12:12:43;;;;;;;6.70;2.72;;;25.90;99.90;;;;;;5008131;28;20030;-88
2023/08/15 12:15:10;;;;;;;9.48;3.33;;;25.70;99.90;;;;;;4993940;28;20509;-88
2023/08/15 12:17:37;;;;;;;8.38;3.83;;;25.70;99.90;;;;;;4981677;28;20058;-89
2023/08/15 12:20:08;;;;;;;8.35;3.40;;;25.80;99.90;;;;;;4976966;28;20023;-89
2023/08/15 12:22:34;;;;;;;9.85;3.25;;;26.10;99.90;;;;;;5006151;28;20032;-88
2023/08/15 12:25:00;;;;;;;12.70;2.70;;;26.40;99.90;;;;;;4992160;28;20035;-89
2023/08/15 12:27:26;;;;;;;9.30;2.85;;;26.60;99.90;;;;;;4987957;28;20128;-90
2023/08/15 12:29:54;;;;;;;8.70;2.67;;;26.70;99.90;;;;;;4988561;28;20480;-89
2023/08/15 12:32:20;;;;;;;9.10;2.42;;;26.70;99.90;;;;;;4992538;28;20022;-88
2023/08/15 12:34:46;;;;;;;7.97;2.95;;;26.70;99.90;;;;;;4989378;28;20498;-88
2023/08/15 12:37:11;;;;;;;7.85;2.90;;;26.70;99.90;;;;;;4988108;28;20498;-89